sensor_id;sensor_type;location;lat;lon;timestamp;P1;durP1;ratioP1;P2;durP2;ratioP2
35380;SDS011;21486;51.916;8.378;2023-03-01T01:33:03;21.33;;;13.02;;
35380;SDS011;21486;51.916;8.378;2023-03-01T01:35:29;20.95;;;13.32;;
35380;SDS011;21486;51.916;8.378;2023-03-01T01:37:54;20.70;;;13.02;;
35380;SDS011;21486;51.916;8.378;2023-03-01T01:40:20;21.77;;;13.63;;
35380;SDS011;21486;51.916;8.378;2023-03-01T01:42:46;23.88;;;14.60;;
35380;SDS011;21486;51.916;8.378;2023-03-01T01:45:26;26.27;;;14.90;;
35380;SDS011;21486;51.916;8.378;2023-03-01T01:47:55;24.63;;;13.98;;
35380;SDS011;21486;51.916;8.378;2023-03-01T01:50:23;21.63;;;12.03;;
35380;SDS011;21486;51.916;8.378;2023-03-01T01:52:50;22.10;;;13.07;;
35380;SDS011;21486;51.916;8.378;2023-03-01T01:55:19;20.10;;;13.07;;
35380;SDS011;21486;51.916;8.378;2023-03-01T01:57:53;19.40;;;12.48;;
35380;SDS011;21486;51.916;8.378;2023-03-01T02:00:25;18.83;;;12.50;;
35380;SDS011;21486;51.916;8.378;2023-03-01T02:03:03;16.98;;;11.70;;
35380;SDS011;21486;51.916;8.378;2023-03-01T02:05:36;20.88;;;11.68;;
35380;SDS011;21486;51.916;8.378;2023-03-01T02:08:18;18.65;;;12.15;;
35380;SDS011;21486;51.916;8.378;2023-03-01T02:10:45;19.77;;;11.95;;
35380;SDS011;21486;51.916;8.378;2023-03-01T02:13:11;19.27;;;11.70;;
35380;SDS011;21486;51.916;8.378;2023-03-01T02:15:38;19.67;;;12.07;;
35380;SDS011;21486;51.916;8.378;2023-03-01T02:18:05;18.92;;;11.93;;
35380;SDS011;21486;51.916;8.378;2023-03-01T02:20:34;20.02;;;11.45;;
35380;SDS011;21486;51.916;8.378;2023-03-01T02:23:00;18.42;;;11.45;;
35380;SDS011;21486;51.916;8.378;2023-03-01T02:25:34;20.98;;;11.75;;
35380;SDS011;21486;51.916;8.378;2023-03-01T02:28:08;16.70;;;11.55;;
35380;SDS011;21486;51.916;8.378;2023-03-01T02:30:39;20.33;;;12.63;;
35380;SDS011;21486;51.916;8.378;2023-03-01T02:33:25;20.23;;;12.48;;
35380;SDS011;21486;51.916;8.378;2023-03-01T02:35:51;19.13;;;11.98;;
35380;SDS011;21486;51.916;8.378;2023-03-01T02:38:19;21.83;;;11.45;;
35380;SDS011;21486;51.916;8.378;2023-03-01T02:40:45;18.92;;;11.80;;
35380;SDS011;21486;51.916;8.378;2023-03-01T02:43:13;18.52;;;11.57;;
35380;SDS011;21486;51.916;8.378;2023-03-01T02:45:43;19.83;;;11.98;;
35380;SDS011;21486;51.916;8.378;2023-03-01T02:48:16;19.80;;;12.25;;
35380;SDS011;21486;51.916;8.378;2023-03-01T02:56:21;19.95;;;12.52;;
35380;SDS011;21486;51.916;8.378;2023-03-01T02:58:46;18.00;;;11.70;;
35380;SDS011;21486;51.916;8.378;2023-03-01T03:01:16;18.77;;;11.90;;
35380;SDS011;21486;51.916;8.378;2023-03-01T03:03:43;18.25;;;11.90;;
35380;SDS011;21486;51.916;8.378;2023-03-01T03:06:08;20.45;;;12.52;;
35380;SDS011;21486;51.916;8.378;2023-03-01T03:08:34;18.70;;;11.75;;
35380;SDS011;21486;51.916;8.378;2023-03-01T03:11:00;18.45;;;12.45;;
35380;SDS011;21486;51.916;8.378;2023-03-01T03:13:26;20.97;;;12.23;;
35380;SDS011;21486;51.916;8.378;2023-03-01T03:15:53;23.13;;;12.52;;
35380;SDS011;21486;51.916;8.378;2023-03-01T03:18:20;19.50;;;11.75;;
35380;SDS011;21486;51.916;8.378;2023-03-01T03:20:47;19.17;;;11.80;;
35380;SDS011;21486;51.916;8.378;2023-03-01T03:23:17;21.13;;;11.93;;
35380;SDS011;21486;51.916;8.378;2023-03-01T03:25:43;18.85;;;11.63;;
35380;SDS011;21486;51.916;8.378;2023-03-01T03:28:08;18.23;;;11.50;;
35380;SDS011;21486;51.916;8.378;2023-03-01T03:30:34;20.42;;;11.60;;
35380;SDS011;21486;51.916;8.378;2023-03-01T03:33:01;20.02;;;11.45;;
35380;SDS011;21486;51.916;8.378;2023-03-01T03:35:31;19.00;;;11.68;;
35380;SDS011;21486;51.916;8.378;2023-03-01T03:37:59;17.40;;;11.98;;
35380;SDS011;21486;51.916;8.378;2023-03-01T03:40:27;19.70;;;11.93;;
35380;SDS011;21486;51.916;8.378;2023-03-01T03:43:14;20.30;;;12.32;;
35380;SDS011;21486;51.916;8.378;2023-03-01T03:45:44;19.70;;;12.48;;
35380;SDS011;21486;51.916;8.378;2023-03-01T03:48:10;18.45;;;12.30;;
35380;SDS011;21486;51.916;8.378;2023-03-01T03:50:39;21.97;;;12.27;;
35380;SDS011;21486;51.916;8.378;2023-03-01T03:53:06;21.85;;;12.63;;
35380;SDS011;21486;51.916;8.378;2023-03-01T03:55:36;17.80;;;11.88;;
35380;SDS011;21486;51.916;8.378;2023-03-01T03:58:04;21.77;;;11.77;;
35380;SDS011;21486;51.916;8.378;2023-03-01T04:00:43;19.77;;;12.30;;
35380;SDS011;21486;51.916;8.378;2023-03-01T04:03:10;20.30;;;12.13;;
35380;SDS011;21486;51.916;8.378;2023-03-01T04:05:37;16.83;;;11.85;;
35380;SDS011;21486;51.916;8.378;2023-03-01T04:08:04;19.05;;;12.07;;
35380;SDS011;21486;51.916;8.378;2023-03-01T04:10:34;20.27;;;12.47;;
35380;SDS011;21486;51.916;8.378;2023-03-01T04:13:02;19.60;;;12.10;;
35380;SDS011;21486;51.916;8.378;2023-03-01T04:15:28;18.33;;;12.77;;
35380;SDS011;21486;51.916;8.378;2023-03-01T04:17:56;20.58;;;12.77;;
35380;SDS011;21486;51.916;8.378;2023-03-01T04:20:23;19.73;;;12.90;;
35380;SDS011;21486;51.916;8.378;2023-03-01T04:22:57;21.60;;;12.48;;
35380;SDS011;21486;51.916;8.378;2023-03-01T04:25:41;20.85;;;12.77;;
35380;SDS011;21486;51.916;8.378;2023-03-01T04:28:24;21.40;;;12.68;;
35380;SDS011;21486;51.916;8.378;2023-03-01T04:30:55;23.15;;;12.70;;
35380;SDS011;21486;51.916;8.378;2023-03-01T04:33:22;23.02;;;12.48;;
35380;SDS011;21486;51.916;8.378;2023-03-01T04:35:49;21.35;;;12.80;;
35380;SDS011;21486;51.916;8.378;2023-03-01T04:38:15;20.75;;;12.65;;
35380;SDS011;21486;51.916;8.378;2023-03-01T04:40:42;22.33;;;12.63;;
35380;SDS011;21486;51.916;8.378;2023-03-01T04:43:08;17.33;;;12.25;;
35380;SDS011;21486;51.916;8.378;2023-03-01T04:45:34;20.23;;;12.38;;
35380;SDS011;21486;51.916;8.378;2023-03-01T04:48:00;18.88;;;11.63;;
35380;SDS011;21486;51.916;8.378;2023-03-01T04:50:26;18.95;;;11.88;;
35380;SDS011;21486;51.916;8.378;2023-03-01T04:52:51;19.17;;;12.50;;
35380;SDS011;21486;51.916;8.378;2023-03-01T04:55:17;21.20;;;11.77;;
35380;SDS011;21486;51.916;8.378;2023-03-01T04:57:43;20.48;;;12.30;;
35380;SDS011;21486;51.916;8.378;2023-03-01T05:00:11;18.10;;;12.15;;
35380;SDS011;21486;51.916;8.378;2023-03-01T05:02:48;20.90;;;12.68;;
35380;SDS011;21486;51.916;8.378;2023-03-01T05:05:18;20.83;;;12.55;;
35380;SDS011;21486;51.916;8.378;2023-03-01T05:07:44;20.52;;;12.77;;
35380;SDS011;21486;51.916;8.378;2023-03-01T05:10:09;20.20;;;12.73;;
35380;SDS011;21486;51.916;8.378;2023-03-01T05:12:35;20.98;;;12.45;;
35380;SDS011;21486;51.916;8.378;2023-03-01T05:15:02;19.05;;;12.57;;
35380;SDS011;21486;51.916;8.378;2023-03-01T05:17:31;20.30;;;13.10;;
35380;SDS011;21486;51.916;8.378;2023-03-01T05:19:58;23.27;;;12.98;;
35380;SDS011;21486;51.916;8.378;2023-03-01T05:22:24;19.43;;;13.07;;
35380;SDS011;21486;51.916;8.378;2023-03-01T05:24:50;22.95;;;13.45;;
35380;SDS011;21486;51.916;8.378;2023-03-01T05:27:16;24.63;;;13.15;;
35380;SDS011;21486;51.916;8.378;2023-03-01T05:29:41;23.63;;;13.00;;
35380;SDS011;21486;51.916;8.378;2023-03-01T05:32:07;20.75;;;13.32;;
35380;SDS011;21486;51.916;8.378;2023-03-01T05:34:34;21.38;;;13.50;;
35380;SDS011;21486;51.916;8.378;2023-03-01T05:37:01;22.45;;;13.82;;
35380;SDS011;21486;51.916;8.378;2023-03-01T05:39:28;22.17;;;13.67;;
35380;SDS011;21486;51.916;8.378;2023-03-01T05:41:55;21.50;;;13.75;;
35380;SDS011;21486;51.916;8.378;2023-03-01T05:44:22;22.70;;;13.73;;
35380;SDS011;21486;51.916;8.378;2023-03-01T05:46:48;22.52;;;14.35;;
35380;SDS011;21486;51.916;8.378;2023-03-01T05:49:15;21.20;;;14.38;;
35380;SDS011;21486;51.916;8.378;2023-03-01T05:51:41;19.97;;;13.43;;
35380;SDS011;21486;51.916;8.378;2023-03-01T05:54:08;21.65;;;14.23;;
35380;SDS011;21486;51.916;8.378;2023-03-01T05:56:34;23.27;;;14.02;;
35380;SDS011;21486;51.916;8.378;2023-03-01T05:59:01;26.30;;;14.20;;
35380;SDS011;21486;51.916;8.378;2023-03-01T06:01:27;21.25;;;14.15;;
35380;SDS011;21486;51.916;8.378;2023-03-01T06:03:54;22.13;;;14.18;;
35380;SDS011;21486;51.916;8.378;2023-03-01T06:06:20;22.20;;;14.02;;
35380;SDS011;21486;51.916;8.378;2023-03-01T06:08:46;25.15;;;13.90;;
35380;SDS011;21486;51.916;8.378;2023-03-01T06:11:12;22.23;;;13.90;;
35380;SDS011;21486;51.916;8.378;2023-03-01T06:13:37;26.40;;;14.00;;
35380;SDS011;21486;51.916;8.378;2023-03-01T06:16:06;24.13;;;13.97;;
35380;SDS011;21486;51.916;8.378;2023-03-01T06:18:32;22.52;;;14.45;;
35380;SDS011;21486;51.916;8.378;2023-03-01T06:20:58;25.45;;;14.20;;
35380;SDS011;21486;51.916;8.378;2023-03-01T06:23:23;22.48;;;13.82;;
35380;SDS011;21486;51.916;8.378;2023-03-01T06:25:49;25.67;;;14.55;;
35380;SDS011;21486;51.916;8.378;2023-03-01T06:28:15;24.43;;;14.53;;
35380;SDS011;21486;51.916;8.378;2023-03-01T06:30:41;24.52;;;14.90;;
35380;SDS011;21486;51.916;8.378;2023-03-01T06:33:06;26.77;;;15.13;;
35380;SDS011;21486;51.916;8.378;2023-03-01T06:35:32;25.65;;;15.05;;
35380;SDS011;21486;51.916;8.378;2023-03-01T06:37:59;26.17;;;15.05;;
35380;SDS011;21486;51.916;8.378;2023-03-01T06:40:25;23.70;;;14.68;;
35380;SDS011;21486;51.916;8.378;2023-03-01T06:42:51;24.00;;;14.67;;
35380;SDS011;21486;51.916;8.378;2023-03-01T06:45:18;25.15;;;15.45;;
35380;SDS011;21486;51.916;8.378;2023-03-01T06:47:45;24.75;;;14.77;;
35380;SDS011;21486;51.916;8.378;2023-03-01T06:50:10;30.20;;;15.75;;
35380;SDS011;21486;51.916;8.378;2023-03-01T06:52:36;31.17;;;17.05;;
35380;SDS011;21486;51.916;8.378;2023-03-01T06:55:02;30.87;;;16.77;;
35380;SDS011;21486;51.916;8.378;2023-03-01T06:57:28;30.27;;;16.67;;
35380;SDS011;21486;51.916;8.378;2023-03-01T06:59:54;36.10;;;17.60;;
35380;SDS011;21486;51.916;8.378;2023-03-01T07:02:20;39.08;;;19.60;;
35380;SDS011;21486;51.916;8.378;2023-03-01T07:04:46;37.80;;;18.88;;
35380;SDS011;21486;51.916;8.378;2023-03-01T07:07:13;38.40;;;19.38;;
35380;SDS011;21486;51.916;8.378;2023-03-01T07:09:38;39.13;;;19.10;;
35380;SDS011;21486;51.916;8.378;2023-03-01T07:12:04;48.15;;;19.80;;
35380;SDS011;21486;51.916;8.378;2023-03-01T07:14:30;37.17;;;18.65;;
35380;SDS011;21486;51.916;8.378;2023-03-01T07:16:55;38.57;;;18.93;;
35380;SDS011;21486;51.916;8.378;2023-03-01T07:19:21;35.63;;;19.00;;
35380;SDS011;21486;51.916;8.378;2023-03-01T07:21:47;32.47;;;18.17;;
35380;SDS011;21486;51.916;8.378;2023-03-01T07:24:13;31.98;;;17.77;;
35380;SDS011;21486;51.916;8.378;2023-03-01T07:26:39;34.13;;;17.92;;
35380;SDS011;21486;51.916;8.378;2023-03-01T07:29:05;34.47;;;17.53;;
35380;SDS011;21486;51.916;8.378;2023-03-01T07:31:32;31.25;;;17.42;;
35380;SDS011;21486;51.916;8.378;2023-03-01T07:33:58;30.63;;;16.37;;
35380;SDS011;21486;51.916;8.378;2023-03-01T07:36:23;27.00;;;16.80;;
35380;SDS011;21486;51.916;8.378;2023-03-01T07:38:50;30.88;;;16.52;;
35380;SDS011;21486;51.916;8.378;2023-03-01T07:41:16;29.38;;;15.90;;
35380;SDS011;21486;51.916;8.378;2023-03-01T07:43:42;31.00;;;16.85;;
35380;SDS011;21486;51.916;8.378;2023-03-01T07:46:09;30.60;;;17.00;;
35380;SDS011;21486;51.916;8.378;2023-03-01T07:48:35;27.83;;;16.23;;
35380;SDS011;21486;51.916;8.378;2023-03-01T07:51:00;33.92;;;17.30;;
35380;SDS011;21486;51.916;8.378;2023-03-01T07:53:28;32.25;;;16.75;;
35380;SDS011;21486;51.916;8.378;2023-03-01T07:56:02;26.85;;;16.67;;
35380;SDS011;21486;51.916;8.378;2023-03-01T07:58:36;30.50;;;16.23;;
35380;SDS011;21486;51.916;8.378;2023-03-01T08:01:04;28.25;;;15.35;;
35380;SDS011;21486;51.916;8.378;2023-03-01T08:03:31;28.15;;;16.35;;
35380;SDS011;21486;51.916;8.378;2023-03-01T08:06:01;25.80;;;14.57;;
35380;SDS011;21486;51.916;8.378;2023-03-01T08:08:28;30.50;;;14.48;;
35380;SDS011;21486;51.916;8.378;2023-03-01T08:10:57;28.15;;;14.23;;
35380;SDS011;21486;51.916;8.378;2023-03-01T08:13:26;30.73;;;15.40;;
35380;SDS011;21486;51.916;8.378;2023-03-01T08:15:52;26.80;;;13.90;;
35380;SDS011;21486;51.916;8.378;2023-03-01T08:18:19;23.88;;;13.45;;
35380;SDS011;21486;51.916;8.378;2023-03-01T08:20:45;30.88;;;14.05;;
35380;SDS011;21486;51.916;8.378;2023-03-01T08:23:11;30.98;;;14.30;;
35380;SDS011;21486;51.916;8.378;2023-03-01T08:25:37;23.90;;;12.80;;
35380;SDS011;21486;51.916;8.378;2023-03-01T08:28:04;20.67;;;12.30;;
35380;SDS011;21486;51.916;8.378;2023-03-01T08:30:30;24.90;;;13.48;;
35380;SDS011;21486;51.916;8.378;2023-03-01T08:32:55;23.33;;;12.60;;
35380;SDS011;21486;51.916;8.378;2023-03-01T08:35:21;25.47;;;13.23;;
35380;SDS011;21486;51.916;8.378;2023-03-01T08:37:47;22.42;;;12.00;;
35380;SDS011;21486;51.916;8.378;2023-03-01T08:40:13;21.35;;;12.27;;
35380;SDS011;21486;51.916;8.378;2023-03-01T08:42:39;17.58;;;11.43;;
35380;SDS011;21486;51.916;8.378;2023-03-01T08:45:06;18.10;;;11.10;;
35380;SDS011;21486;51.916;8.378;2023-03-01T08:47:32;21.30;;;11.47;;
35380;SDS011;21486;51.916;8.378;2023-03-01T08:49:58;19.38;;;11.20;;
35380;SDS011;21486;51.916;8.378;2023-03-01T08:52:24;19.50;;;11.18;;
35380;SDS011;21486;51.916;8.378;2023-03-01T08:54:51;18.05;;;10.68;;
35380;SDS011;21486;51.916;8.378;2023-03-01T08:57:16;20.00;;;10.82;;
35380;SDS011;21486;51.916;8.378;2023-03-01T08:59:42;22.63;;;10.57;;
35380;SDS011;21486;51.916;8.378;2023-03-01T09:02:15;16.73;;;10.33;;
35380;SDS011;21486;51.916;8.378;2023-03-01T09:04:42;18.95;;;11.00;;
35380;SDS011;21486;51.916;8.378;2023-03-01T09:07:08;17.73;;;9.90;;
35380;SDS011;21486;51.916;8.378;2023-03-01T09:09:34;15.23;;;9.30;;
35380;SDS011;21486;51.916;8.378;2023-03-01T09:12:00;14.75;;;8.60;;
35380;SDS011;21486;51.916;8.378;2023-03-01T09:14:26;15.50;;;8.93;;
35380;SDS011;21486;51.916;8.378;2023-03-01T09:16:51;14.20;;;8.70;;
35380;SDS011;21486;51.916;8.378;2023-03-01T09:19:17;13.23;;;8.30;;
35380;SDS011;21486;51.916;8.378;2023-03-01T09:21:43;15.23;;;8.93;;
35380;SDS011;21486;51.916;8.378;2023-03-01T09:24:17;14.20;;;8.35;;
35380;SDS011;21486;51.916;8.378;2023-03-01T09:26:47;13.88;;;8.23;;
35380;SDS011;21486;51.916;8.378;2023-03-01T09:29:14;15.67;;;9.03;;
35380;SDS011;21486;51.916;8.378;2023-03-01T09:31:40;14.20;;;8.63;;
35380;SDS011;21486;51.916;8.378;2023-03-01T09:34:06;19.03;;;11.33;;
35380;SDS011;21486;51.916;8.378;2023-03-01T09:36:32;16.35;;;10.05;;
35380;SDS011;21486;51.916;8.378;2023-03-01T09:38:58;13.15;;;8.55;;
35380;SDS011;21486;51.916;8.378;2023-03-01T09:44:34;16.05;;;9.32;;
35380;SDS011;21486;51.916;8.378;2023-03-01T09:47:09;20.05;;;11.27;;
35380;SDS011;21486;51.916;8.378;2023-03-01T09:49:41;16.15;;;10.80;;
35380;SDS011;21486;51.916;8.378;2023-03-01T09:52:19;47.95;;;29.23;;
35380;SDS011;21486;51.916;8.378;2023-03-01T09:54:55;15.38;;;8.35;;
35380;SDS011;21486;51.916;8.378;2023-03-01T09:57:40;14.73;;;8.00;;
35380;SDS011;21486;51.916;8.378;2023-03-01T10:00:22;14.27;;;7.65;;
35380;SDS011;21486;51.916;8.378;2023-03-01T10:05:47;42.80;;;24.90;;
35380;SDS011;21486;51.916;8.378;2023-03-01T10:08:23;14.63;;;9.00;;
35380;SDS011;21486;51.916;8.378;2023-03-01T10:11:01;13.43;;;8.00;;
35380;SDS011;21486;51.916;8.378;2023-03-01T10:16:26;14.30;;;8.20;;
35380;SDS011;21486;51.916;8.378;2023-03-01T10:18:58;11.82;;;7.75;;
35380;SDS011;21486;51.916;8.378;2023-03-01T10:21:26;13.82;;;7.15;;
35380;SDS011;21486;51.916;8.378;2023-03-01T10:23:56;14.05;;;7.40;;
35380;SDS011;21486;51.916;8.378;2023-03-01T10:29:07;11.93;;;7.60;;
35380;SDS011;21486;51.916;8.378;2023-03-01T10:31:44;15.60;;;7.83;;
35380;SDS011;21486;51.916;8.378;2023-03-01T10:34:15;13.17;;;7.53;;
35380;SDS011;21486;51.916;8.378;2023-03-01T10:36:43;11.45;;;7.25;;
35380;SDS011;21486;51.916;8.378;2023-03-01T10:39:14;17.55;;;8.10;;
35380;SDS011;21486;51.916;8.378;2023-03-01T10:41:52;12.13;;;7.80;;
35380;SDS011;21486;51.916;8.378;2023-03-01T10:44:36;12.82;;;7.72;;
35380;SDS011;21486;51.916;8.378;2023-03-01T10:47:20;13.13;;;7.65;;
35380;SDS011;21486;51.916;8.378;2023-03-01T10:49:55;12.87;;;7.90;;
35380;SDS011;21486;51.916;8.378;2023-03-01T10:52:29;13.98;;;7.90;;
35380;SDS011;21486;51.916;8.378;2023-03-01T10:55:01;24.80;;;15.75;;
35380;SDS011;21486;51.916;8.378;2023-03-01T10:57:37;13.93;;;8.18;;
35380;SDS011;21486;51.916;8.378;2023-03-01T11:03:12;12.60;;;7.60;;
35380;SDS011;21486;51.916;8.378;2023-03-01T11:05:44;11.70;;;7.25;;
35380;SDS011;21486;51.916;8.378;2023-03-01T11:13:52;13.68;;;7.55;;
35380;SDS011;21486;51.916;8.378;2023-03-01T11:16:28;11.73;;;7.63;;
35380;SDS011;21486;51.916;8.378;2023-03-01T11:21:34;13.83;;;7.97;;
35380;SDS011;21486;51.916;8.378;2023-03-01T11:24:17;12.27;;;8.18;;
35380;SDS011;21486;51.916;8.378;2023-03-01T11:26:45;12.52;;;8.10;;
35380;SDS011;21486;51.916;8.378;2023-03-01T11:31:54;12.40;;;7.28;;
35380;SDS011;21486;51.916;8.378;2023-03-01T11:34:36;10.82;;;7.28;;
35380;SDS011;21486;51.916;8.378;2023-03-01T11:37:11;10.77;;;6.95;;
35380;SDS011;21486;51.916;8.378;2023-03-01T11:45:35;10.75;;;6.40;;
35380;SDS011;21486;51.916;8.378;2023-03-01T11:48:25;11.88;;;6.80;;
35380;SDS011;21486;51.916;8.378;2023-03-01T11:51:05;11.60;;;6.13;;
35380;SDS011;21486;51.916;8.378;2023-03-01T11:56:26;10.77;;;5.80;;
35380;SDS011;21486;51.916;8.378;2023-03-01T11:59:11;10.98;;;5.93;;
35380;SDS011;21486;51.916;8.378;2023-03-01T12:04:36;8.32;;;5.68;;
35380;SDS011;21486;51.916;8.378;2023-03-01T12:07:12;10.20;;;5.78;;
35380;SDS011;21486;51.916;8.378;2023-03-01T12:18:13;11.13;;;6.20;;
35380;SDS011;21486;51.916;8.378;2023-03-01T12:21:05;10.13;;;5.95;;
35380;SDS011;21486;51.916;8.378;2023-03-01T12:26:52;9.98;;;5.72;;
35380;SDS011;21486;51.916;8.378;2023-03-01T12:29:38;10.45;;;5.35;;
35380;SDS011;21486;51.916;8.378;2023-03-01T12:35:29;12.80;;;6.57;;
35380;SDS011;21486;51.916;8.378;2023-03-01T12:41:07;10.60;;;6.07;;
35380;SDS011;21486;51.916;8.378;2023-03-01T12:46:18;16.25;;;6.53;;
35380;SDS011;21486;51.916;8.378;2023-03-01T12:51:36;12.25;;;6.82;;
35380;SDS011;21486;51.916;8.378;2023-03-01T12:54:22;10.68;;;6.65;;
35380;SDS011;21486;51.916;8.378;2023-03-01T12:56:53;13.13;;;7.47;;
35380;SDS011;21486;51.916;8.378;2023-03-01T13:02:06;11.30;;;6.40;;
35380;SDS011;21486;51.916;8.378;2023-03-01T13:04:45;10.25;;;5.95;;
35380;SDS011;21486;51.916;8.378;2023-03-01T13:07:44;12.43;;;6.20;;
35380;SDS011;21486;51.916;8.378;2023-03-01T13:10:29;10.95;;;6.20;;
35380;SDS011;21486;51.916;8.378;2023-03-01T13:13:12;9.27;;;6.13;;
35380;SDS011;21486;51.916;8.378;2023-03-01T13:15:46;11.07;;;6.65;;
35380;SDS011;21486;51.916;8.378;2023-03-01T13:20:46;10.20;;;5.85;;
35380;SDS011;21486;51.916;8.378;2023-03-01T13:26:01;10.40;;;5.63;;
35380;SDS011;21486;51.916;8.378;2023-03-01T13:28:37;11.93;;;6.07;;
35380;SDS011;21486;51.916;8.378;2023-03-01T13:31:06;12.43;;;5.88;;
35380;SDS011;21486;51.916;8.378;2023-03-01T13:33:54;8.20;;;5.40;;
35380;SDS011;21486;51.916;8.378;2023-03-01T13:39:26;9.50;;;5.32;;
35380;SDS011;21486;51.916;8.378;2023-03-01T13:42:03;9.95;;;5.72;;
35380;SDS011;21486;51.916;8.378;2023-03-01T13:44:55;12.52;;;5.45;;
35380;SDS011;21486;51.916;8.378;2023-03-01T13:47:22;12.07;;;5.20;;
35380;SDS011;21486;51.916;8.378;2023-03-01T13:49:49;12.05;;;5.25;;
35380;SDS011;21486;51.916;8.378;2023-03-01T13:52:30;9.20;;;4.72;;
35380;SDS011;21486;51.916;8.378;2023-03-01T13:55:13;11.73;;;5.00;;
35380;SDS011;21486;51.916;8.378;2023-03-01T13:57:44;7.70;;;5.13;;
35380;SDS011;21486;51.916;8.378;2023-03-01T14:03:13;7.88;;;4.53;;
35380;SDS011;21486;51.916;8.378;2023-03-01T14:05:41;7.75;;;4.43;;
35380;SDS011;21486;51.916;8.378;2023-03-01T14:08:22;7.35;;;4.25;;
35380;SDS011;21486;51.916;8.378;2023-03-01T14:13:32;7.90;;;4.60;;
35380;SDS011;21486;51.916;8.378;2023-03-01T14:16:06;15.60;;;7.07;;
35380;SDS011;21486;51.916;8.378;2023-03-01T14:19:15;9.63;;;5.00;;
35380;SDS011;21486;51.916;8.378;2023-03-01T14:21:43;8.45;;;4.78;;
35380;SDS011;21486;51.916;8.378;2023-03-01T14:24:20;8.32;;;4.65;;
35380;SDS011;21486;51.916;8.378;2023-03-01T14:26:47;10.85;;;4.72;;
35380;SDS011;21486;51.916;8.378;2023-03-01T14:29:25;6.53;;;4.18;;
35380;SDS011;21486;51.916;8.378;2023-03-01T14:31:53;7.88;;;4.32;;
35380;SDS011;21486;51.916;8.378;2023-03-01T14:34:19;8.52;;;4.43;;
35380;SDS011;21486;51.916;8.378;2023-03-01T14:36:47;8.38;;;4.72;;
35380;SDS011;21486;51.916;8.378;2023-03-01T14:39:16;8.00;;;4.57;;
35380;SDS011;21486;51.916;8.378;2023-03-01T14:41:49;7.15;;;4.40;;
35380;SDS011;21486;51.916;8.378;2023-03-01T14:44:17;9.10;;;4.40;;
35380;SDS011;21486;51.916;8.378;2023-03-01T14:46:51;9.00;;;4.20;;
35380;SDS011;21486;51.916;8.378;2023-03-01T14:49:21;8.30;;;4.68;;
35380;SDS011;21486;51.916;8.378;2023-03-01T14:52:06;7.43;;;4.57;;
35380;SDS011;21486;51.916;8.378;2023-03-01T14:54:41;9.45;;;4.57;;
35380;SDS011;21486;51.916;8.378;2023-03-01T14:57:13;8.90;;;4.80;;
35380;SDS011;21486;51.916;8.378;2023-03-01T14:59:46;8.10;;;4.63;;
35380;SDS011;21486;51.916;8.378;2023-03-01T15:02:15;9.15;;;5.03;;
35380;SDS011;21486;51.916;8.378;2023-03-01T15:04:45;7.97;;;4.60;;
35380;SDS011;21486;51.916;8.378;2023-03-01T15:07:13;9.63;;;4.80;;
35380;SDS011;21486;51.916;8.378;2023-03-01T15:09:39;8.60;;;4.72;;
35380;SDS011;21486;51.916;8.378;2023-03-01T15:14:54;8.32;;;4.88;;
35380;SDS011;21486;51.916;8.378;2023-03-01T15:17:34;7.22;;;4.50;;
35380;SDS011;21486;51.916;8.378;2023-03-01T15:20:02;11.03;;;5.27;;
35380;SDS011;21486;51.916;8.378;2023-03-01T15:22:30;8.10;;;4.88;;
35380;SDS011;21486;51.916;8.378;2023-03-01T15:24:56;8.57;;;4.95;;
35380;SDS011;21486;51.916;8.378;2023-03-01T15:27:23;8.43;;;5.27;;
35380;SDS011;21486;51.916;8.378;2023-03-01T15:29:52;8.95;;;5.13;;
35380;SDS011;21486;51.916;8.378;2023-03-01T15:32:31;9.60;;;5.40;;
35380;SDS011;21486;51.916;8.378;2023-03-01T15:40:59;10.95;;;5.32;;
35380;SDS011;21486;51.916;8.378;2023-03-01T15:43:36;8.23;;;5.20;;
35380;SDS011;21486;51.916;8.378;2023-03-01T15:46:03;7.45;;;4.50;;
35380;SDS011;21486;51.916;8.378;2023-03-01T15:48:29;6.80;;;4.65;;
35380;SDS011;21486;51.916;8.378;2023-03-01T15:50:56;8.82;;;4.45;;
35380;SDS011;21486;51.916;8.378;2023-03-01T15:53:23;9.10;;;4.82;;
35380;SDS011;21486;51.916;8.378;2023-03-01T15:55:49;9.83;;;4.83;;
35380;SDS011;21486;51.916;8.378;2023-03-01T15:58:19;13.25;;;5.07;;
35380;SDS011;21486;51.916;8.378;2023-03-01T16:00:46;8.83;;;4.97;;
35380;SDS011;21486;51.916;8.378;2023-03-01T16:03:13;7.85;;;4.72;;
35380;SDS011;21486;51.916;8.378;2023-03-01T16:05:46;7.45;;;4.80;;
35380;SDS011;21486;51.916;8.378;2023-03-01T16:08:13;10.27;;;4.85;;
35380;SDS011;21486;51.916;8.378;2023-03-01T16:10:40;8.93;;;5.25;;
35380;SDS011;21486;51.916;8.378;2023-03-01T16:13:08;9.43;;;4.82;;
35380;SDS011;21486;51.916;8.378;2023-03-01T16:15:34;9.57;;;5.25;;
35380;SDS011;21486;51.916;8.378;2023-03-01T16:18:00;9.57;;;5.03;;
35380;SDS011;21486;51.916;8.378;2023-03-01T16:20:27;9.25;;;5.53;;
35380;SDS011;21486;51.916;8.378;2023-03-01T16:22:54;9.13;;;5.35;;
35380;SDS011;21486;51.916;8.378;2023-03-01T16:25:20;9.30;;;5.30;;
35380;SDS011;21486;51.916;8.378;2023-03-01T16:27:47;8.75;;;5.00;;
35380;SDS011;21486;51.916;8.378;2023-03-01T16:30:14;11.18;;;5.07;;
35380;SDS011;21486;51.916;8.378;2023-03-01T16:32:42;9.02;;;5.57;;
35380;SDS011;21486;51.916;8.378;2023-03-01T16:35:09;11.52;;;5.40;;
35380;SDS011;21486;51.916;8.378;2023-03-01T16:37:36;10.82;;;5.40;;
35380;SDS011;21486;51.916;8.378;2023-03-01T16:40:02;10.52;;;5.90;;
35380;SDS011;21486;51.916;8.378;2023-03-01T16:42:33;8.90;;;5.45;;
35380;SDS011;21486;51.916;8.378;2023-03-01T16:44:59;10.18;;;5.22;;
35380;SDS011;21486;51.916;8.378;2023-03-01T16:47:26;10.77;;;5.97;;
35380;SDS011;21486;51.916;8.378;2023-03-01T16:49:52;9.10;;;5.10;;
35380;SDS011;21486;51.916;8.378;2023-03-01T16:52:19;8.70;;;4.95;;
35380;SDS011;21486;51.916;8.378;2023-03-01T16:54:45;10.10;;;5.30;;
35380;SDS011;21486;51.916;8.378;2023-03-01T16:57:11;9.93;;;5.63;;
35380;SDS011;21486;51.916;8.378;2023-03-01T16:59:37;9.93;;;5.53;;
35380;SDS011;21486;51.916;8.378;2023-03-01T17:02:03;7.97;;;5.37;;
35380;SDS011;21486;51.916;8.378;2023-03-01T17:04:30;9.32;;;5.50;;
35380;SDS011;21486;51.916;8.378;2023-03-01T17:06:56;9.98;;;5.18;;
35380;SDS011;21486;51.916;8.378;2023-03-01T17:09:22;11.10;;;6.20;;
35380;SDS011;21486;51.916;8.378;2023-03-01T17:11:48;9.85;;;5.72;;
35380;SDS011;21486;51.916;8.378;2023-03-01T17:14:14;9.45;;;5.47;;
35380;SDS011;21486;51.916;8.378;2023-03-01T17:16:41;13.60;;;5.88;;
35380;SDS011;21486;51.916;8.378;2023-03-01T17:19:07;11.95;;;6.15;;
35380;SDS011;21486;51.916;8.378;2023-03-01T17:21:32;11.87;;;6.27;;
35380;SDS011;21486;51.916;8.378;2023-03-01T17:23:58;13.23;;;7.30;;
35380;SDS011;21486;51.916;8.378;2023-03-01T17:26:24;14.18;;;7.13;;
35380;SDS011;21486;51.916;8.378;2023-03-01T17:28:50;11.15;;;6.65;;
35380;SDS011;21486;51.916;8.378;2023-03-01T17:31:16;12.03;;;6.37;;
35380;SDS011;21486;51.916;8.378;2023-03-01T17:33:42;13.45;;;6.63;;
35380;SDS011;21486;51.916;8.378;2023-03-01T17:36:08;13.02;;;6.30;;
35380;SDS011;21486;51.916;8.378;2023-03-01T17:38:33;10.75;;;6.13;;
35380;SDS011;21486;51.916;8.378;2023-03-01T17:41:01;9.98;;;5.80;;
35380;SDS011;21486;51.916;8.378;2023-03-01T17:43:28;11.90;;;6.40;;
35380;SDS011;21486;51.916;8.378;2023-03-01T17:45:54;11.70;;;6.05;;
35380;SDS011;21486;51.916;8.378;2023-03-01T17:48:20;9.85;;;6.25;;